createdAt,value
2023-04-27T00:01:01.426Z,5.24
2023-04-27T00:03:28.415Z,5.20
2023-04-27T00:05:55.320Z,5.21
2023-04-27T00:08:22.076Z,5.18
2023-04-27T00:10:48.614Z,5.10
2023-04-27T00:13:15.034Z,5.06
2023-04-27T00:15:41.711Z,5.04
2023-04-27T00:18:08.340Z,5.01
2023-04-27T00:20:34.853Z,5.16
2023-04-27T00:23:01.304Z,5.10
2023-04-27T00:25:27.825Z,5.05
2023-04-27T00:27:54.372Z,5.10
2023-04-27T00:30:21.074Z,5.10
2023-04-27T00:32:47.923Z,5.07
2023-04-27T00:35:16.358Z,5.11
2023-04-27T00:37:42.827Z,5.10
2023-04-27T00:40:09.777Z,5.10
2023-04-27T00:42:36.362Z,4.96
2023-04-27T00:45:04.075Z,5.02
2023-04-27T00:47:31.005Z,5.04
2023-04-27T00:49:57.663Z,5.07
2023-04-27T00:52:25.982Z,5.11
2023-04-27T00:54:53.061Z,5.17
2023-04-27T00:57:21.336Z,5.25
2023-04-27T00:59:47.853Z,5.15
2023-04-27T01:02:14.477Z,5.13
2023-04-27T01:04:41.420Z,5.16
2023-04-27T01:07:08.101Z,5.10
2023-04-27T01:09:34.634Z,5.11
2023-04-27T01:12:01.405Z,5.09
2023-04-27T01:14:27.932Z,5.14
2023-04-27T01:16:54.547Z,5.09
2023-04-27T01:19:21.120Z,5.07
2023-04-27T01:21:50.072Z,5.07
2023-04-27T01:24:16.818Z,5.16
2023-04-27T01:26:43.268Z,5.09
2023-04-27T01:29:10.143Z,5.07
2023-04-27T01:31:36.840Z,5.20
2023-04-27T01:34:03.744Z,5.21
2023-04-27T01:36:30.215Z,5.10
2023-04-27T01:38:56.690Z,5.05
2023-04-27T01:41:23.819Z,5.08
2023-04-27T01:43:50.262Z,5.09
2023-04-27T01:46:16.856Z,5.10
2023-04-27T01:48:43.523Z,5.19
2023-04-27T01:51:10.948Z,5.15
2023-04-27T01:53:37.433Z,5.03
2023-04-27T01:56:04.048Z,5.10
2023-04-27T01:58:32.829Z,5.14
2023-04-27T02:00:59.319Z,5.06
2023-04-27T02:03:26.218Z,4.89
2023-04-27T02:05:52.926Z,4.98
2023-04-27T02:08:19.794Z,4.95
2023-04-27T02:10:46.323Z,4.89
2023-04-27T02:13:12.808Z,4.87
2023-04-27T02:15:39.358Z,4.83
2023-04-27T02:18:05.975Z,4.71
2023-04-27T02:20:33.295Z,4.62
2023-04-27T02:23:02.190Z,4.65
2023-04-27T02:25:28.865Z,4.53
2023-04-27T02:27:55.658Z,4.57
2023-04-27T02:30:23.130Z,4.47
2023-04-27T02:32:50.079Z,4.45
2023-04-27T02:35:16.739Z,4.31
2023-04-27T02:37:43.241Z,4.33
2023-04-27T02:40:10.286Z,4.25
2023-04-27T02:42:38.820Z,4.19
2023-04-27T02:45:07.358Z,4.18
2023-04-27T02:47:34.438Z,4.14
2023-04-27T02:50:01.285Z,4.05
2023-04-27T02:52:27.770Z,4.10
2023-04-27T02:54:54.318Z,3.99
2023-04-27T02:57:21.041Z,3.93
2023-04-27T02:59:47.473Z,3.85
2023-04-27T03:02:14.236Z,3.89
2023-04-27T03:04:40.780Z,3.92
2023-04-27T03:07:07.295Z,3.86
2023-04-27T03:09:33.737Z,3.66
2023-04-27T03:12:00.433Z,3.81
2023-04-27T03:14:26.882Z,3.73
2023-04-27T03:16:54.279Z,3.72
2023-04-27T03:19:20.823Z,3.64
2023-04-27T03:21:47.244Z,3.69
2023-04-27T03:24:14.947Z,3.59
2023-04-27T03:26:42.631Z,3.54
2023-04-27T03:29:09.273Z,3.55
2023-04-27T03:31:35.764Z,3.57
2023-04-27T03:34:02.324Z,3.55
2023-04-27T03:36:28.742Z,3.53
2023-04-27T03:38:55.160Z,3.54
2023-04-27T03:41:21.664Z,3.52
2023-04-27T03:43:48.986Z,3.56
2023-04-27T03:46:17.010Z,3.53
2023-04-27T03:48:43.946Z,3.55
2023-04-27T03:51:10.579Z,3.61
2023-04-27T03:53:37.067Z,3.68
2023-04-27T03:56:04.251Z,3.73
2023-04-27T03:58:30.820Z,3.71
2023-04-27T04:01:10.167Z,3.63
2023-04-27T04:03:37.233Z,3.59
2023-04-27T04:06:06.891Z,3.65
2023-04-27T04:08:34.223Z,3.70
2023-04-27T04:11:00.901Z,3.74
2023-04-27T04:13:28.577Z,3.80
2023-04-27T04:16:07.088Z,3.87
2023-04-27T04:18:34.216Z,3.84
2023-04-27T04:21:01.202Z,3.82
2023-04-27T04:23:27.877Z,3.85
2023-04-27T04:25:58.460Z,3.91
2023-04-27T04:28:29.165Z,3.96
2023-04-27T04:30:55.709Z,3.99
2023-04-27T04:33:22.611Z,4.01
2023-04-27T04:35:49.173Z,4.10
2023-04-27T04:38:15.665Z,4.12
2023-04-27T04:40:44.536Z,4.23
2023-04-27T04:43:13.309Z,4.25
2023-04-27T04:45:39.890Z,4.32
2023-04-27T04:48:06.408Z,4.34
2023-04-27T04:50:32.979Z,4.36
2023-04-27T04:52:59.543Z,4.48
2023-04-27T04:55:28.267Z,4.44
2023-04-27T04:57:54.815Z,4.56
2023-04-27T05:00:22.456Z,4.57
2023-04-27T05:02:49.613Z,4.65
2023-04-27T05:05:16.654Z,4.71
2023-04-27T05:07:43.237Z,4.79
2023-04-27T05:10:09.874Z,4.87
2023-04-27T05:12:36.331Z,5.00
2023-04-27T05:15:03.506Z,5.09
2023-04-27T05:17:30.056Z,5.05
2023-04-27T05:19:56.625Z,5.08
2023-04-27T05:22:23.231Z,5.11
2023-04-27T05:24:49.884Z,5.25
2023-04-27T05:27:17.035Z,5.24
2023-04-27T05:29:43.514Z,5.37
2023-04-27T05:32:10.069Z,5.43
2023-04-27T05:34:36.927Z,5.50
2023-04-27T05:37:03.461Z,5.55
2023-04-27T05:39:30.078Z,5.51
2023-04-27T05:41:57.392Z,5.59
2023-04-27T05:44:28.229Z,5.62
2023-04-27T05:46:56.084Z,5.71
2023-04-27T05:49:22.744Z,5.83
2023-04-27T05:51:49.224Z,5.82
2023-04-27T05:54:15.723Z,5.94
2023-04-27T05:56:42.307Z,6.06
2023-04-27T05:59:08.860Z,6.10
2023-04-27T06:01:35.393Z,6.13
2023-04-27T06:04:02.144Z,6.23
2023-04-27T06:06:31.677Z,6.18
2023-04-27T06:08:58.477Z,6.42
2023-04-27T06:11:25.115Z,6.36
2023-04-27T06:13:51.526Z,6.34
2023-04-27T06:16:18.029Z,6.44
2023-04-27T06:18:44.543Z,6.59
2023-04-27T06:21:11.158Z,6.66
2023-04-27T06:23:37.661Z,6.79
2023-04-27T06:26:04.187Z,6.74
2023-04-27T06:28:30.641Z,6.88
2023-04-27T06:30:57.294Z,6.97
2023-04-27T06:33:23.740Z,7.02
2023-04-27T06:35:50.818Z,7.06
2023-04-27T06:38:17.875Z,7.20
2023-04-27T06:40:45.699Z,7.15
2023-04-27T06:43:12.116Z,7.19
2023-04-27T06:45:38.564Z,7.36
2023-04-27T06:48:05.455Z,7.42
2023-04-27T06:50:32.020Z,7.47
2023-04-27T06:52:58.490Z,7.51
2023-04-27T06:55:25.436Z,7.49
2023-04-27T06:57:52.182Z,7.56
2023-04-27T07:00:19.262Z,7.75
2023-04-27T07:02:45.798Z,7.83
2023-04-27T07:07:38.990Z,8.02
2023-04-27T07:10:06.161Z,8.03
2023-04-27T07:12:32.823Z,8.01
2023-04-27T07:14:59.286Z,8.24
2023-04-27T07:17:25.786Z,8.24
2023-04-27T07:19:52.281Z,8.15
2023-04-27T07:22:19.979Z,8.36
2023-04-27T07:24:46.609Z,8.54
2023-04-27T07:27:15.019Z,8.53
2023-04-27T07:29:42.353Z,8.63
2023-04-27T07:32:09.265Z,8.57
2023-04-27T07:34:48.966Z,8.59
2023-04-27T07:37:19.856Z,8.80
2023-04-27T07:39:46.729Z,8.92
2023-04-27T07:42:13.315Z,9.05
2023-04-27T07:44:40.767Z,9.02
2023-04-27T07:47:07.339Z,9.07
2023-04-27T07:49:34.991Z,8.94
2023-04-27T07:52:01.800Z,9.00
2023-04-27T07:54:28.270Z,9.38
2023-04-27T07:56:54.836Z,9.51
2023-04-27T07:59:21.861Z,9.54
2023-04-27T08:01:48.388Z,9.53
2023-04-27T08:04:16.142Z,9.58
2023-04-27T08:06:43.173Z,9.71
2023-04-27T08:09:10.018Z,9.64
2023-04-27T08:11:36.525Z,9.79
2023-04-27T08:14:02.981Z,9.79
2023-04-27T08:16:29.608Z,9.91
2023-04-27T08:18:56.523Z,9.91
2023-04-27T08:21:24.164Z,10.00
2023-04-27T08:23:50.864Z,10.08
2023-04-27T08:26:17.366Z,10.20
2023-04-27T08:28:43.830Z,10.27
2023-04-27T08:31:10.416Z,10.19
2023-04-27T08:33:37.014Z,10.27
2023-04-27T08:36:03.789Z,10.52
2023-04-27T08:38:30.588Z,10.47
2023-04-27T08:41:00.780Z,10.41
2023-04-27T08:43:34.385Z,10.62
2023-04-27T08:46:01.134Z,10.66
2023-04-27T08:48:27.735Z,11.03
2023-04-27T08:50:57.047Z,10.92
2023-04-27T08:53:23.594Z,11.04
2023-04-27T08:55:50.470Z,10.94
2023-04-27T08:58:16.938Z,11.12
2023-04-27T09:00:45.836Z,11.16
2023-04-27T09:03:22.592Z,11.02
2023-04-27T09:06:03.730Z,11.20
2023-04-27T09:09:01.671Z,11.30
2023-04-27T09:11:33.882Z,11.39
2023-04-27T09:14:03.035Z,11.27
2023-04-27T09:16:30.924Z,11.30
2023-04-27T09:18:59.001Z,11.33
2023-04-27T09:21:27.728Z,11.42
2023-04-27T09:23:55.609Z,11.39
2023-04-27T09:26:24.586Z,11.37
2023-04-27T09:28:52.939Z,11.53
2023-04-27T09:31:20.728Z,11.70
2023-04-27T09:33:54.990Z,11.64
2023-04-27T09:36:22.556Z,11.86
2023-04-27T09:38:49.648Z,11.68
2023-04-27T09:41:17.047Z,11.44
2023-04-27T09:43:45.546Z,11.63
2023-04-27T09:46:15.762Z,11.66
2023-04-27T09:48:42.688Z,11.64
2023-04-27T09:51:09.394Z,11.61
2023-04-27T09:53:40.953Z,11.62
2023-04-27T09:56:08.178Z,11.55
2023-04-27T09:58:52.879Z,11.54
2023-04-27T10:01:36.535Z,11.52
2023-04-27T10:04:22.288Z,11.45
2023-04-27T10:07:12.867Z,11.37
2023-04-27T10:09:46.366Z,11.37
2023-04-27T10:12:20.261Z,11.54
2023-04-27T10:14:52.099Z,11.59
2023-04-27T10:17:19.856Z,11.91
2023-04-27T10:20:12.605Z,12.03
2023-04-27T10:22:40.077Z,12.11
2023-04-27T10:25:20.152Z,12.32
2023-04-27T10:27:56.608Z,12.56
2023-04-27T10:30:26.075Z,12.68
2023-04-27T10:32:56.846Z,12.76
2023-04-27T10:35:41.706Z,12.73
2023-04-27T10:38:18.773Z,12.69
2023-04-27T10:40:55.261Z,12.92
2023-04-27T10:43:26.013Z,13.06
2023-04-27T10:45:52.915Z,13.07
2023-04-27T10:48:19.755Z,13.26
2023-04-27T10:50:46.827Z,13.31
2023-04-27T10:53:15.503Z,13.66
2023-04-27T10:55:42.174Z,13.74
2023-04-27T10:58:08.829Z,13.86
2023-04-27T11:00:38.841Z,13.73
2023-04-27T11:03:11.799Z,13.73
2023-04-27T11:05:38.752Z,13.76
2023-04-27T11:08:10.364Z,13.96
2023-04-27T11:10:43.124Z,13.97
2023-04-27T11:13:14.892Z,14.09
2023-04-27T11:15:47.973Z,14.10
2023-04-27T11:18:17.240Z,14.26
2023-04-27T11:20:45.571Z,13.95
2023-04-27T11:23:37.016Z,13.62
2023-04-27T11:26:17.991Z,13.39
2023-04-27T11:28:56.906Z,13.19
2023-04-27T11:31:23.462Z,13.10
2023-04-27T11:33:50.982Z,12.97
2023-04-27T11:36:18.899Z,12.93
2023-04-27T11:38:45.907Z,12.94
2023-04-27T11:41:13.091Z,13.06
2023-04-27T11:43:46.250Z,13.35
2023-04-27T11:46:13.281Z,13.58
2023-04-27T11:48:39.950Z,13.83
2023-04-27T11:51:10.202Z,13.76
2023-04-27T11:53:39.703Z,13.70
2023-04-27T11:56:11.204Z,13.48
2023-04-27T11:58:39.489Z,13.46
2023-04-27T12:01:07.362Z,13.46
2023-04-27T12:03:34.359Z,13.67
2023-04-27T12:06:16.168Z,13.74
2023-04-27T12:08:47.839Z,13.70
2023-04-27T12:11:14.479Z,13.75
2023-04-27T12:13:41.108Z,13.66
2023-04-27T12:16:07.684Z,13.85
2023-04-27T12:18:34.237Z,13.93
2023-04-27T12:21:02.948Z,13.82
2023-04-27T12:23:30.050Z,13.90
2023-04-27T12:25:56.596Z,13.95
2023-04-27T12:28:23.431Z,13.92
2023-04-27T12:30:50.157Z,14.00
2023-04-27T12:33:17.254Z,14.10
2023-04-27T12:35:43.868Z,14.05
2023-04-27T12:38:10.496Z,14.05
2023-04-27T12:40:37.685Z,14.01
2023-04-27T12:43:04.416Z,13.92
2023-04-27T12:45:31.066Z,13.85
2023-04-27T12:48:02.671Z,13.87
2023-04-27T12:50:32.053Z,13.82
2023-04-27T12:52:58.810Z,13.84
2023-04-27T12:57:58.283Z,13.91
2023-04-27T13:00:25.697Z,13.86
2023-04-27T13:02:53.174Z,13.95
2023-04-27T13:05:21.060Z,13.95
2023-04-27T13:07:47.771Z,13.96
2023-04-27T13:10:14.430Z,13.94
2023-04-27T13:12:41.622Z,14.05
2023-04-27T13:15:09.114Z,14.06
2023-04-27T13:17:35.642Z,14.28
2023-04-27T13:20:02.189Z,14.18
2023-04-27T13:22:28.734Z,14.04
2023-04-27T13:24:55.587Z,13.76
2023-04-27T13:27:25.122Z,13.59
2023-04-27T13:29:51.813Z,13.65
2023-04-27T13:32:18.678Z,13.80
2023-04-27T13:34:45.688Z,13.95
2023-04-27T13:37:12.218Z,14.08
2023-04-27T13:39:38.811Z,14.12
2023-04-27T13:42:06.221Z,14.23
2023-04-27T13:44:32.797Z,14.44
2023-04-27T13:46:59.349Z,14.28
2023-04-27T13:49:25.972Z,14.38
2023-04-27T13:51:52.652Z,14.33
2023-04-27T13:54:20.533Z,14.30
2023-04-27T13:56:47.978Z,14.25
2023-04-27T13:59:16.703Z,14.30
2023-04-27T14:01:43.801Z,14.33
2023-04-27T14:04:10.704Z,14.29
2023-04-27T14:06:37.586Z,14.23
2023-04-27T14:09:04.860Z,14.02
2023-04-27T14:11:37.199Z,13.94
2023-04-27T14:14:08.838Z,14.08
2023-04-27T14:16:35.409Z,13.97
2023-04-27T14:19:01.970Z,13.98
2023-04-27T14:21:28.491Z,13.93
2023-04-27T14:23:54.974Z,13.87
2023-04-27T14:26:22.005Z,13.82
2023-04-27T14:28:48.489Z,14.01
2023-04-27T14:31:15.001Z,13.93
2023-04-27T14:33:41.515Z,14.09
2023-04-27T14:36:08.192Z,14.06
2023-04-27T14:38:34.659Z,13.81
2023-04-27T14:41:03.310Z,14.01
2023-04-27T14:43:29.801Z,13.89
2023-04-27T14:46:04.818Z,13.92
2023-04-27T14:48:38.871Z,13.98
2023-04-27T14:51:06.371Z,13.95
2023-04-27T14:53:32.836Z,14.03
2023-04-27T14:55:59.334Z,13.92
2023-04-27T14:58:26.089Z,14.09
2023-04-27T15:00:52.547Z,14.24
2023-04-27T15:03:20.133Z,14.36
2023-04-27T15:05:46.806Z,14.45
2023-04-27T15:08:13.410Z,14.28
2023-04-27T15:10:40.113Z,14.16
2023-04-27T15:13:06.605Z,14.16
2023-04-27T15:15:33.229Z,14.16
2023-04-27T15:17:59.871Z,14.18
2023-04-27T15:20:26.870Z,14.57
2023-04-27T15:22:53.501Z,14.42
2023-04-27T15:25:20.275Z,14.40
2023-04-27T15:27:46.834Z,14.33
2023-04-27T15:30:14.515Z,14.32
2023-04-27T15:32:41.112Z,14.36
2023-04-27T15:35:08.360Z,14.32
2023-04-27T15:37:36.428Z,14.29
2023-04-27T15:40:04.193Z,14.19
2023-04-27T15:42:30.736Z,14.26
2023-04-27T15:44:57.883Z,14.11
2023-04-27T15:47:24.386Z,14.06
2023-04-27T15:49:57.450Z,14.15
2023-04-27T15:52:26.402Z,14.01
2023-04-27T15:54:52.932Z,13.97
2023-04-27T15:57:19.504Z,14.05
2023-04-27T15:59:46.282Z,14.02
2023-04-27T16:02:13.299Z,14.00
2023-04-27T16:04:39.854Z,14.02
2023-04-27T16:07:07.419Z,13.95
2023-04-27T16:09:34.183Z,14.07
2023-04-27T16:12:01.886Z,14.01
2023-04-27T16:14:28.360Z,13.74
2023-04-27T16:16:56.198Z,14.19
2023-04-27T16:19:23.530Z,14.25
2023-04-27T16:21:50.303Z,13.86
2023-04-27T16:24:16.769Z,13.92
2023-04-27T16:26:43.346Z,14.05
2023-04-27T16:29:09.901Z,13.68
2023-04-27T16:31:36.423Z,14.16
2023-04-27T16:34:03.955Z,13.94
2023-04-27T16:36:30.701Z,13.86
2023-04-27T16:38:58.596Z,13.82
2023-04-27T16:41:25.259Z,13.79
2023-04-27T16:43:52.056Z,13.80
2023-04-27T16:46:18.806Z,13.92
2023-04-27T16:48:45.352Z,13.84
2023-04-27T16:51:11.835Z,13.86
2023-04-27T16:53:38.375Z,13.86
2023-04-27T16:56:05.234Z,14.01
2023-04-27T16:58:34.250Z,13.47
2023-04-27T17:01:00.734Z,13.75
2023-04-27T17:03:27.623Z,13.77
2023-04-27T17:05:54.226Z,13.12
2023-04-27T17:08:20.833Z,13.76
2023-04-27T17:10:47.474Z,13.58
2023-04-27T17:13:16.334Z,13.84
2023-04-27T17:15:42.959Z,13.65
2023-04-27T17:18:10.472Z,13.55
2023-04-27T17:20:38.068Z,13.46
2023-04-27T17:23:06.925Z,13.29
2023-04-27T17:25:33.515Z,13.59
2023-04-27T17:28:01.483Z,12.87
2023-04-27T17:30:28.645Z,13.19
2023-04-27T17:32:55.284Z,13.45
2023-04-27T17:35:22.018Z,12.99
2023-04-27T17:37:48.656Z,13.18
2023-04-27T17:40:20.495Z,13.17
2023-04-27T17:42:47.347Z,13.22
2023-04-27T17:45:14.034Z,12.92
2023-04-27T17:47:40.846Z,13.07
2023-04-27T17:50:08.448Z,13.10
2023-04-27T17:52:35.632Z,13.10
2023-04-27T17:55:02.309Z,12.92
2023-04-27T17:57:28.820Z,13.12
2023-04-27T17:59:55.437Z,12.95
2023-04-27T18:02:22.026Z,12.88
2023-04-27T18:04:48.559Z,12.80
2023-04-27T18:07:18.377Z,12.88
2023-04-27T18:09:47.265Z,12.67
2023-04-27T18:12:13.731Z,12.68
2023-04-27T18:14:40.299Z,12.68
2023-04-27T18:17:06.748Z,12.64
2023-04-27T18:19:36.440Z,12.48
2023-04-27T18:22:05.344Z,12.55
2023-04-27T18:24:32.027Z,12.26
2023-04-27T18:26:59.946Z,11.98
2023-04-27T18:29:27.163Z,12.35
2023-04-27T18:31:53.751Z,11.83
2023-04-27T18:34:20.780Z,12.07
2023-04-27T18:36:52.015Z,11.94
2023-04-27T18:39:19.104Z,11.87
2023-04-27T18:41:46.117Z,11.68
2023-04-27T18:44:12.850Z,11.66
2023-04-27T18:46:39.743Z,11.41
2023-04-27T18:49:06.323Z,11.23
2023-04-27T18:51:32.890Z,11.48
2023-04-27T18:53:59.634Z,11.40
2023-04-27T18:56:26.298Z,11.10
2023-04-27T18:58:53.479Z,11.10
2023-04-27T19:01:28.128Z,10.92
2023-04-27T19:03:56.624Z,10.89
2023-04-27T19:06:32.537Z,10.59
2023-04-27T19:08:59.595Z,10.71
2023-04-27T19:11:29.004Z,10.49
2023-04-27T19:13:56.519Z,10.56
2023-04-27T19:16:29.943Z,10.56
2023-04-27T19:18:59.353Z,10.46
2023-04-27T19:21:26.918Z,10.42
2023-04-27T19:23:54.259Z,10.36
2023-04-27T19:26:26.283Z,10.22
2023-04-27T19:28:58.229Z,9.96
2023-04-27T19:31:29.018Z,10.23
2023-04-27T19:36:32.026Z,10.08
2023-04-27T19:39:01.474Z,10.01
2023-04-27T19:41:31.737Z,9.88
2023-04-27T19:44:00.274Z,10.10
2023-04-27T19:46:27.625Z,9.98
2023-04-27T19:49:01.189Z,10.00
2023-04-27T19:51:31.815Z,9.71
2023-04-27T19:54:16.987Z,9.85
2023-04-27T19:56:47.820Z,9.84
2023-04-27T19:59:15.589Z,9.75
2023-04-27T20:01:42.713Z,9.79
2023-04-27T20:04:09.963Z,9.93
2023-04-27T20:06:37.982Z,9.75
2023-04-27T20:09:05.212Z,9.81
2023-04-27T20:11:35.130Z,9.61
2023-04-27T20:14:04.633Z,9.60
2023-04-27T20:16:31.571Z,9.72
2023-04-27T20:18:58.459Z,9.66
2023-04-27T20:21:26.490Z,9.09
2023-04-27T20:23:53.475Z,9.49
2023-04-27T20:26:22.507Z,9.28
2023-04-27T20:28:49.752Z,9.18
2023-04-27T20:31:16.958Z,9.37
2023-04-27T20:33:43.827Z,9.44
2023-04-27T20:36:18.370Z,9.54
2023-04-27T20:38:46.337Z,9.67
2023-04-27T20:41:13.776Z,9.57
2023-04-27T20:43:41.177Z,9.71
2023-04-27T20:46:08.473Z,9.63
2023-04-27T20:48:35.640Z,9.63
2023-04-27T20:51:02.690Z,9.47
2023-04-27T20:53:29.942Z,9.59
2023-04-27T20:55:57.402Z,9.48
2023-04-27T20:58:25.893Z,9.49
2023-04-27T21:00:53.038Z,9.45
2023-04-27T21:03:22.879Z,9.34
2023-04-27T21:05:50.449Z,9.16
2023-04-27T21:08:18.323Z,9.15
2023-04-27T21:10:45.325Z,9.09
2023-04-27T21:13:12.197Z,9.02
2023-04-27T21:15:39.322Z,9.01
2023-04-27T21:18:13.420Z,8.93
2023-04-27T21:20:48.676Z,8.59
2023-04-27T21:23:16.143Z,8.68
2023-04-27T21:25:49.130Z,8.64
2023-04-27T21:28:19.365Z,8.77
2023-04-27T21:30:49.217Z,8.70
2023-04-27T21:33:16.344Z,8.66
2023-04-27T21:35:43.252Z,8.55
2023-04-27T21:38:17.470Z,8.57
2023-04-27T21:40:49.452Z,8.49
2023-04-27T21:43:16.499Z,8.60
2023-04-27T21:45:44.752Z,8.69
2023-04-27T21:48:11.807Z,8.53
2023-04-27T21:50:38.959Z,8.60
2023-04-27T21:53:06.102Z,8.59
2023-04-27T21:55:33.175Z,8.59
2023-04-27T21:58:05.745Z,8.49
2023-04-27T22:00:33.635Z,8.64
2023-04-27T22:03:01.272Z,8.28
2023-04-27T22:05:29.437Z,8.35
2023-04-27T22:07:59.237Z,8.43
2023-04-27T22:10:25.986Z,8.77
2023-04-27T22:12:52.482Z,8.77
2023-04-27T22:15:20.304Z,8.70
2023-04-27T22:17:47.216Z,8.69
2023-04-27T22:20:14.398Z,8.63
2023-04-27T22:22:41.131Z,8.63
2023-04-27T22:25:08.074Z,8.64
2023-04-27T22:27:41.977Z,8.64
2023-04-27T22:30:11.479Z,8.57
2023-04-27T22:32:38.097Z,8.58
2023-04-27T22:35:08.692Z,8.55
2023-04-27T22:37:37.276Z,8.58
2023-04-27T22:40:05.846Z,8.58
2023-04-27T22:42:32.435Z,8.81
2023-04-27T22:44:58.938Z,8.90
2023-04-27T22:47:25.560Z,8.99
2023-04-27T22:49:54.557Z,9.03
2023-04-27T22:52:21.947Z,8.98
2023-04-27T22:54:48.417Z,9.06
2023-04-27T22:57:14.937Z,9.09
2023-04-27T22:59:41.391Z,9.14
2023-04-27T23:02:08.068Z,9.19
2023-04-27T23:04:34.756Z,9.20
2023-04-27T23:07:01.233Z,9.25
2023-04-27T23:09:27.762Z,9.34
2023-04-27T23:11:54.868Z,9.33
2023-04-27T23:14:21.343Z,9.26
2023-04-27T23:16:47.858Z,9.28
2023-04-27T23:19:14.420Z,9.26
2023-04-27T23:21:41.175Z,9.37
2023-04-27T23:24:07.712Z,9.41
2023-04-27T23:26:34.247Z,9.39
2023-04-27T23:29:00.792Z,9.33
2023-04-27T23:31:27.643Z,9.28
2023-04-27T23:33:54.201Z,9.34
2023-04-27T23:36:21.053Z,9.33
2023-04-27T23:38:47.573Z,9.35
2023-04-27T23:41:14.155Z,9.29
2023-04-27T23:43:40.862Z,9.27
2023-04-27T23:46:07.493Z,9.22
2023-04-27T23:48:34.025Z,9.16
2023-04-27T23:51:02.031Z,9.10
2023-04-27T23:53:28.636Z,9.05
2023-04-27T23:55:55.977Z,8.96
2023-04-27T23:58:24.029Z,8.90
